Time;durP1;ratioP1;P1;durP2;ratioP2;P2;SDS_P1;SDS_P2;PMS_P1;PMS_P2;Temp;Humidity;BMP_temperature;BMP_pressure;BME280_temperature;BME280_humidity;BME280_pressure;Samples;Min_cycle;Max_cycle;Signal;HPM_P1;HPM_P2
2024/04/12 00:02:11;;;;;;;11.18;3.90;;;;;;;15.57;100.00;101950.84;5415486;26;20031;-70
2024/04/12 00:04:39;;;;;;;11.48;3.70;;;;;;;15.56;100.00;101958.22;5415367;26;20350;-69
2024/04/12 00:07:13;;;;;;;17.33;4.60;;;;;;;15.57;100.00;101956.31;5384209;26;19999;-69
2024/04/12 00:09:52;;;;;;;14.00;4.03;;;;;;;15.57;100.00;101948.09;5415868;26;20448;-69
2024/04/12 00:12:26;;;;;;;12.10;3.65;;;;;;;15.58;100.00;101955.19;5415221;26;20000;-69
2024/04/12 00:15:02;;;;;;;13.32;3.63;;;;;;;15.58;100.00;101950.53;5415296;26;20007;-69
2024/04/12 00:17:31;;;;;;;13.13;3.60;;;;;;;15.56;100.00;101963.69;5415043;26;19995;-69
2024/04/12 00:20:00;;;;;;;13.55;3.90;;;;;;;15.56;100.00;101954.66;5418689;26;20007;-70
2024/04/12 00:22:29;;;;;;;20.00;3.83;;;;;;;15.51;100.00;101952.84;5419151;26;20077;-70
2024/04/12 00:24:59;;;;;;;11.05;3.70;;;;;;;15.53;100.00;101956.09;5419067;26;20007;-70
2024/04/12 00:27:33;;;;;;;16.55;4.43;;;;;;;15.59;99.88;101949.41;5418906;26;19999;-69
2024/04/12 00:30:03;;;;;;;15.88;4.90;;;;;;;15.64;99.88;101935.63;5418942;26;20004;-70
2024/04/12 00:32:35;;;;;;;15.93;5.32;;;;;;;15.65;99.75;101926.28;5418631;26;20074;-70
2024/04/12 00:35:06;;;;;;;20.65;5.18;;;;;;;15.60;99.84;101920.91;5417812;26;20039;-70
2024/04/12 00:37:34;;;;;;;17.88;4.90;;;;;;;15.59;100.00;101924.75;5419178;26;20019;-70
2024/04/12 00:40:07;;;;;;;16.35;4.38;;;;;;;15.60;100.00;101911.88;5418873;26;20084;-70
2024/04/12 00:42:35;;;;;;;18.98;5.32;;;;;;;15.57;100.00;101899.59;5418320;26;19999;-70
2024/04/12 00:45:03;;;;;;;19.95;5.97;;;;;;;15.57;99.98;101905.06;5387215;26;20445;-70
2024/04/12 00:47:33;;;;;;;14.38;4.63;;;;;;;15.61;99.50;101892.38;5418923;26;20004;-70
2024/04/12 00:50:04;;;;;;;17.35;4.68;;;;;;;15.64;98.93;101883.56;5418629;26;20117;-71
2024/04/12 00:52:37;;;;;;;17.33;4.88;;;;;;;15.65;98.42;101890.66;5418523;26;20456;-70
2024/04/12 00:55:09;;;;;;;14.30;4.50;;;;;;;15.64;97.60;101883.56;5418269;26;20004;-70
2024/04/12 00:57:39;;;;;;;14.95;4.55;;;;;;;15.65;97.37;101876.16;5418330;26;20003;-70
2024/04/12 01:00:09;;;;;;;14.65;3.85;;;;;;;15.65;96.80;101868.75;5418433;26;20032;-70
2024/04/12 01:02:40;;;;;;;19.25;4.80;;;;;;;15.65;96.61;101871.47;5417916;26;20000;-70
2024/04/12 01:05:13;;;;;;;12.88;3.88;;;;;;;15.64;96.39;101861.63;5418121;26;19999;-70
2024/04/12 01:07:48;;;;;;;13.80;3.40;;;;;;;15.67;95.24;101850.09;5418459;26;20011;-70
2024/04/12 01:10:25;;;;;;;15.07;3.67;;;;;;;15.71;94.73;101844.84;5418497;26;20018;-70
2024/04/12 01:12:57;;;;;;;14.18;3.78;;;;;;;15.73;92.96;101841.78;5418135;26;20050;-70
2024/04/12 01:15:32;;;;;;;15.48;3.55;;;;;;;15.82;91.71;101850.94;5356825;26;20003;-70
2024/04/12 01:18:05;;;;;;;18.65;3.60;;;;;;;15.82;91.08;101850.94;5418009;26;20014;-70
2024/04/12 01:20:34;;;;;;;11.52;3.80;;;;;;;15.87;90.53;101854.41;5417825;26;20076;-70
2024/04/12 01:23:04;;;;;;;11.57;3.47;;;;;;;15.91;90.14;101854.59;5386386;26;20010;-70
2024/04/12 01:25:33;;;;;;;14.65;3.53;;;;;;;15.87;90.34;101864.56;5417564;26;20014;-70
2024/04/12 01:28:09;;;;;;;12.52;3.75;;;;;;;15.86;90.65;101863.75;5417674;26;20023;-70
2024/04/12 01:30:39;;;;;;;16.40;4.00;;;;;;;15.87;90.45;101872.78;5417616;26;20014;-69
2024/04/12 01:33:08;;;;;;;11.35;3.85;;;;;;;15.88;90.65;101872.47;5417532;26;20015;-70
2024/04/12 01:35:37;;;;;;;13.00;4.25;;;;;;;15.86;90.57;101865.66;5417934;26;20353;-70
2024/04/12 01:38:16;;;;;;;13.48;3.78;;;;;;;15.87;90.64;101870.84;5418153;26;20011;-70
2024/04/12 01:40:56;;;;;;;12.68;4.00;;;;;;;15.87;90.61;101868.09;5417690;26;20051;-70
2024/04/12 01:43:27;;;;;;;13.60;3.65;;;;;;;15.85;90.53;101859.34;5387389;26;20015;-69
2024/04/12 01:45:56;;;;;;;13.90;4.13;;;;;;;15.90;89.43;101863.94;5418016;26;20004;-70
2024/04/12 01:48:24;;;;;;;14.13;4.47;;;;;;;15.94;89.11;101859.47;5386552;26;20036;-70
2024/04/12 01:50:53;;;;;;;11.93;3.85;;;;;;;16.05;87.79;101866.38;5418001;26;20003;-70
2024/04/12 01:53:22;;;;;;;12.25;4.07;;;;;;;16.03;87.88;101871.38;5418320;26;20003;-71
2024/04/12 01:55:50;;;;;;;15.02;4.03;;;;;;;16.03;88.28;101887.00;5417487;26;20008;-71
2024/04/12 01:58:19;;;;;;;16.15;4.40;;;;;;;16.05;88.05;101884.75;5417761;26;20003;-71
2024/04/12 02:00:49;;;;;;;17.55;3.88;;;;;;;16.09;87.54;101889.34;5386616;26;20326;-70
2024/04/12 02:03:17;;;;;;;11.38;4.05;;;;;;;16.04;87.65;101880.41;5417444;26;20004;-71
2024/04/12 02:05:48;;;;;;;15.20;4.30;;;;;;;15.94;88.50;101875.91;5386740;26;20004;-70
2024/04/12 02:08:17;;;;;;;11.68;4.13;;;;;;;15.92;89.11;101878.94;5386148;26;20027;-71
2024/04/12 02:10:48;;;;;;;18.55;4.40;;;;;;;15.88;89.22;101883.41;5417662;26;20011;-71
2024/04/12 02:13:17;;;;;;;15.32;3.92;;;;;;;15.84;89.42;101889.81;5417414;26;20000;-70
2024/04/12 02:15:48;;;;;;;13.02;3.70;;;;;;;15.82;90.05;101894.78;5417499;26;20003;-70
2024/04/12 02:18:19;;;;;;;15.63;4.18;;;;;;;15.82;89.78;101897.53;5417512;26;20000;-70
2024/04/12 02:20:51;;;;;;;14.20;4.68;;;;;;;15.73;90.05;101893.84;5417403;26;20000;-70
2024/04/12 02:23:21;;;;;;;11.90;3.70;;;;;;;15.71;90.43;101905.13;5420970;26;20746;-70
2024/04/12 02:25:49;;;;;;;15.23;3.70;;;;;;;15.67;90.89;101899.44;5417979;26;20445;-70
2024/04/12 02:28:18;;;;;;;14.45;3.90;;;;;;;15.70;91.41;101901.56;5418022;26;19999;-70
2024/04/12 02:31:09;;;;;;;12.13;4.05;;;;;;;15.69;92.61;101904.59;5418292;26;20003;-70
2024/04/12 02:33:36;;;;;;;21.42;4.60;;;;;;;15.66;93.40;101902.44;5416395;26;20004;-70
2024/04/12 02:36:11;;;;;;;16.02;4.50;;;;;;;15.63;93.87;101900.28;5417143;26;20009;-70
2024/04/12 02:38:44;;;;;;;17.50;4.80;;;;;;;15.63;94.25;101897.53;5417325;26;20000;-71
2024/04/12 02:41:14;;;;;;;20.20;4.60;;;;;;;15.61;94.86;101908.03;5415881;26;20449;-70
2024/04/12 02:43:52;;;;;;;17.55;4.60;;;;;;;15.57;95.65;101907.00;5386339;26;19999;-70
2024/04/12 02:46:22;;;;;;;16.65;4.95;;;;;;;15.49;96.48;101914.75;5416822;26;20010;-70
2024/04/12 02:48:50;;;;;;;16.25;4.60;;;;;;;15.46;96.90;101909.06;5417121;26;20015;-70
2024/04/12 02:51:22;;;;;;;16.52;4.75;;;;;;;15.44;97.50;101911.31;5416958;26;20336;-70
2024/04/12 02:53:51;;;;;;;17.65;4.53;;;;;;;15.41;97.93;101909.19;5385811;26;20400;-70
2024/04/12 02:56:24;;;;;;;21.13;4.97;;;;;;;15.41;97.67;101907.25;5416663;26;20009;-70
2024/04/12 02:58:52;;;;;;;15.73;4.80;;;;;;;15.41;98.10;101904.50;5416533;26;20011;-70
2024/04/12 03:01:21;;;;;;;20.63;4.80;;;;;;;15.39;97.93;101901.25;5416798;26;19999;-70
2024/04/12 03:03:58;;;;;;;14.13;4.00;;;;;;;15.38;97.99;101899.63;5416978;26;20414;-70
2024/04/12 03:06:32;;;;;;;19.17;4.30;;;;;;;15.39;97.94;101894.94;5385487;26;20000;-70
2024/04/12 03:09:01;;;;;;;17.00;4.20;;;;;;;15.39;98.13;101897.69;5416851;26;20077;-70
2024/04/12 03:11:37;;;;;;;13.95;4.03;;;;;;;15.38;98.20;101896.06;5416368;26;20027;-70
2024/04/12 03:14:09;;;;;;;17.33;4.85;;;;;;;15.37;98.23;101906.22;5416566;26;20010;-70
2024/04/12 03:16:42;;;;;;;16.02;4.43;;;;;;;15.38;98.51;101907.03;5416438;26;20445;-70
2024/04/12 03:19:14;;;;;;;14.27;3.90;;;;;;;15.36;98.23;101906.50;5416345;26;20013;-70
2024/04/12 03:21:43;;;;;;;14.48;4.30;;;;;;;15.36;98.07;101917.47;5416174;26;19999;-70
2024/04/12 03:24:11;;;;;;;14.57;4.00;;;;;;;15.38;97.75;101918.78;5416617;26;20000;-70
2024/04/12 03:26:43;;;;;;;14.30;4.90;;;;;;;15.41;97.77;101923.69;5416042;26;20000;-70
2024/04/12 03:29:12;;;;;;;18.55;4.97;;;;;;;15.43;98.37;101932.44;5385164;26;20008;-70
2024/04/12 03:31:40;;;;;;;16.58;4.97;;;;;;;15.41;98.28;101923.69;5416472;26;20345;-70
2024/04/12 03:34:08;;;;;;;23.13;5.93;;;;;;;15.39;98.98;101930.56;5416227;26;20010;-70
2024/04/12 03:36:53;;;;;;;14.77;5.50;;;;;;;15.35;99.42;101935.81;5415869;26;20000;-70
2024/04/12 03:41:58;;;;;;;20.67;5.90;;;;;;;15.26;100.00;101934.88;5385731;26;20000;-70
2024/04/12 03:44:30;;;;;;;16.95;5.53;;;;;;;15.23;100.00;101939.03;5415561;26;20418;-70
2024/04/12 03:47:07;;;;;;;16.75;5.32;;;;;;;15.21;100.00;101935.78;5416104;26;19995;-70
2024/04/12 03:49:39;;;;;;;18.38;5.32;;;;;;;15.18;100.00;101930.88;5415568;26;20072;-69
2024/04/12 03:52:12;;;;;;;16.90;5.03;;;;;;;15.16;100.00;101937.75;5416846;26;20479;-69
2024/04/12 03:54:42;;;;;;;20.75;5.32;;;;;;;15.14;100.00;101938.06;5387657;26;20815;-69
2024/04/12 03:57:10;;;;;;;23.77;5.95;;;;;;;15.13;100.00;101941.09;5419031;26;20365;-69
2024/04/12 03:59:38;;;;;;;23.85;5.75;;;;;;;15.09;100.00;101948.28;5419142;26;20011;-69
2024/04/12 04:02:09;;;;;;;15.80;4.93;;;;;;;15.08;100.00;101952.94;5419118;26;20461;-70
2024/04/12 04:04:47;;;;;;;23.27;5.45;;;;;;;15.08;100.00;101952.94;5419040;26;20357;-70
2024/04/12 04:07:15;;;;;;;17.27;4.95;;;;;;;15.06;100.00;101946.13;5418837;26;20017;-69
2024/04/12 04:09:45;;;;;;;15.18;5.03;;;;;;;15.06;100.00;101954.34;5419235;26;20003;-69
2024/04/12 04:12:16;;;;;;;18.95;5.55;;;;;;;15.04;100.00;101956.56;5419061;26;20010;-70
2024/04/12 04:14:48;;;;;;;21.15;5.68;;;;;;;15.01;100.00;101967.00;5418617;26;20024;-70
2024/04/12 04:17:19;;;;;;;20.23;6.15;;;;;;;15.01;100.00;101957.97;5418834;26;20466;-70
2024/04/12 04:19:51;;;;;;;16.05;5.28;;;;;;;15.00;100.00;101956.31;5418751;26;20494;-70
2024/04/12 04:22:22;;;;;;;16.23;4.87;;;;;;;15.03;100.00;101953.00;5418702;26;20464;-70
2024/04/12 04:24:53;;;;;;;19.20;5.85;;;;;;;15.01;100.00;101947.84;5418793;26;20032;-72
2024/04/12 04:27:21;;;;;;;26.83;6.10;;;;;;;15.00;100.00;101959.91;5418821;26;20055;-70
2024/04/12 04:29:55;;;;;;;25.45;5.72;;;;;;;15.00;100.00;101959.06;5418872;26;20003;-70
2024/04/12 04:32:25;;;;;;;18.02;5.50;;;;;;;15.00;100.00;101956.31;5418401;26;20341;-71
2024/04/12 04:35:04;;;;;;;21.52;5.32;;;;;;;15.00;100.00;101942.63;5418816;26;20438;-70
2024/04/12 04:37:40;;;;;;;18.98;5.18;;;;;;;15.06;100.00;101957.88;5418716;26;20027;-71
2024/04/12 04:40:10;;;;;;;21.02;5.35;;;;;;;15.12;100.00;101953.97;5418754;26;20024;-71
2024/04/12 04:42:38;;;;;;;21.55;5.50;;;;;;;15.16;100.00;101955.00;5418777;26;20519;-71
2024/04/12 04:45:08;;;;;;;18.25;5.25;;;;;;;15.19;100.00;101951.66;5387284;26;20011;-71
2024/04/12 04:47:39;;;;;;;19.10;5.63;;;;;;;15.23;99.87;101952.72;5387405;26;20011;-72
2024/04/12 04:50:12;;;;;;;19.35;7.25;;;;;;;15.28;99.82;101957.31;5403311;26;20019;-71
2024/04/12 04:52:40;;;;;;;19.83;6.40;;;;;;;15.33;99.71;101962.69;5383363;26;20457;-69
2024/04/12 04:55:08;;;;;;;27.10;6.90;;;;;;;15.37;99.36;101966.50;5382977;26;20407;-70
2024/04/12 04:57:39;;;;;;;19.13;6.28;;;;;;;15.40;99.26;101965.91;5382570;26;20002;-70
2024/04/12 05:00:07;;;;;;;19.80;6.75;;;;;;;15.40;98.67;101976.84;5383262;26;20432;-73
2024/04/12 05:02:35;;;;;;;22.60;6.22;;;;;;;15.46;98.70;101966.59;5383095;26;20019;-72
2024/04/12 05:05:04;;;;;;;17.60;5.60;;;;;;;15.48;98.36;101967.13;5382281;26;20014;-72
2024/04/12 05:07:35;;;;;;;14.50;5.72;;;;;;;15.51;98.69;101972.03;5382652;26;20004;-71
2024/04/12 05:10:14;;;;;;;17.52;5.60;;;;;;;15.58;97.77;101977.94;5405877;26;20074;-71
2024/04/12 05:12:42;;;;;;;20.00;5.50;;;;;;;15.59;97.16;101974.06;5418491;26;20028;-71
2024/04/12 05:18:02;;;;;;;28.40;8.18;;;;;;;15.61;97.32;101998.44;5406951;26;20085;-70
2024/04/12 05:20:39;;;;;;;22.85;7.45;;;;;;;15.63;97.77;101997.03;5418595;26;20003;-71
2024/04/12 05:23:16;;;;;;;18.83;6.82;;;;;;;15.74;96.60;102002.38;5418374;26;20319;-70
2024/04/12 05:25:44;;;;;;;26.25;7.60;;;;;;;15.73;96.48;102000.75;5417718;26;20090;-70
2024/04/12 05:28:12;;;;;;;19.80;7.55;;;;;;;15.74;97.42;102016.91;5411237;26;20022;-70
2024/04/12 05:30:42;;;;;;;25.48;8.73;;;;;;;15.77;97.64;102010.00;5418037;26;20460;-71
2024/04/12 05:33:11;;;;;;;22.60;8.48;;;;;;;15.81;96.94;102014.59;5417716;26;20044;-71
2024/04/12 05:35:40;;;;;;;27.15;7.95;;;;;;;15.81;95.88;102022.00;5418042;26;20000;-71
2024/04/12 05:38:08;;;;;;;25.67;8.45;;;;;;;15.84;95.28;102024.16;5417741;26;20000;-71
2024/04/12 05:40:41;;;;;;;26.42;7.72;;;;;;;15.87;95.09;102023.56;5417866;26;20004;-72
2024/04/12 05:43:13;;;;;;;19.80;6.93;;;;;;;15.90;94.67;102017.47;5417615;26;20012;-71
2024/04/12 05:45:53;;;;;;;23.20;7.93;;;;;;;15.95;94.82;102031.88;5401819;26;20004;-71
2024/04/12 05:48:22;;;;;;;26.77;6.65;;;;;;;15.97;94.36;102028.88;5386625;26;20425;-71
2024/04/12 05:50:54;;;;;;;18.98;6.10;;;;;;;15.98;94.69;102033.22;5352250;26;20000;-70
2024/04/12 05:53:24;;;;;;;19.20;6.15;;;;;;;16.05;94.51;102033.66;5382216;26;20004;-70
2024/04/12 05:58:40;;;;;;;16.92;6.00;;;;;;;16.18;93.60;102046.56;5411876;26;20016;-70
2024/04/12 06:01:15;;;;;;;19.80;5.60;;;;;;;16.25;92.11;102039.88;5382238;26;20008;-70
2024/04/12 06:03:45;;;;;;;16.95;5.53;;;;;;;16.29;92.18;102038.19;5382148;26;20007;-70
2024/04/12 06:06:15;;;;;;;21.60;5.75;;;;;;;16.43;91.83;102047.25;5382182;26;20028;-70
2024/04/12 06:08:45;;;;;;;20.45;6.03;;;;;;;16.61;90.70;102040.03;5394240;26;20032;-70
2024/04/12 06:11:13;;;;;;;22.13;5.82;;;;;;;16.84;90.35;102052.78;5394895;26;20684;-70
2024/04/12 06:13:43;;;;;;;21.77;6.80;;;;;;;17.05;89.28;102057.88;5381962;26;19996;-71
2024/04/12 06:16:11;;;;;;;17.55;5.85;;;;;;;17.23;88.24;102051.44;5380451;26;20007;-71
2024/04/12 06:18:39;;;;;;;20.48;6.30;;;;;;;17.37;87.23;102054.13;5381577;26;20029;-70
2024/04/12 06:21:10;;;;;;;22.80;5.70;;;;;;;17.56;85.93;102063.06;5351417;26;20416;-70
2024/04/12 06:23:38;;;;;;;18.50;5.72;;;;;;;17.69;84.79;102060.56;5381740;26;20004;-71
2024/04/12 06:26:06;;;;;;;20.25;5.82;;;;;;;17.88;82.87;102068.69;5381073;26;20044;-70
2024/04/12 06:28:36;;;;;;;23.33;8.02;;;;;;;17.92;85.34;102075.19;5381730;26;20333;-70
2024/04/12 06:31:06;;;;;;;28.23;8.77;;;;;;;17.84;86.98;102084.19;5382012;26;20007;-70
2024/04/12 06:33:33;;;;;;;27.65;8.45;;;;;;;17.76;87.15;102081.03;5381804;26;20008;-69
2024/04/12 06:36:04;;;;;;;28.38;8.18;;;;;;;17.61;85.94;102080.56;5381615;26;20078;-70
2024/04/12 06:38:34;;;;;;;28.20;8.80;;;;;;;17.73;86.72;102089.06;5381674;26;20000;-74
2024/04/12 06:41:10;;;;;;;23.13;7.57;;;;;;;17.87;85.71;102089.03;5387179;26;20011;-71
2024/04/12 06:43:38;;;;;;;27.77;7.45;;;;;;;17.75;83.43;102100.56;5386318;26;20353;-69
2024/04/12 06:46:13;;;;;;;17.77;6.65;;;;;;;17.83;83.50;102094.34;5388592;26;20016;-70
2024/04/12 06:48:41;;;;;;;26.65;6.95;;;;;;;17.89;82.40;102095.88;5381917;26;19997;-69
2024/04/12 06:51:13;;;;;;;17.30;5.47;;;;;;;18.08;81.40;102103.94;5381753;26;20040;-69
2024/04/12 06:53:44;;;;;;;25.15;7.45;;;;;;;18.20;82.45;102109.69;5389635;26;20004;-68
2024/04/12 06:56:20;;;;;;;29.40;8.57;;;;;;;18.14;82.70;102101.88;5391774;26;20004;-69
2024/04/12 06:58:48;;;;;;;26.17;7.85;;;;;;;18.11;82.18;102108.00;5381414;26;20000;-69
2024/04/12 07:01:21;;;;;;;19.48;6.78;;;;;;;18.17;81.63;102101.25;5381619;26;20069;-69
2024/04/12 07:03:52;;;;;;;20.75;6.68;;;;;;;18.20;81.59;102108.91;5381221;26;20021;-69
2024/04/12 07:06:20;;;;;;;23.23;6.75;;;;;;;18.20;82.31;102104.19;5397204;26;20008;-69
2024/04/12 07:08:51;;;;;;;19.65;6.07;;;;;;;18.23;82.77;102100.81;5401331;26;20022;-68
2024/04/12 07:11:21;;;;;;;23.25;7.30;;;;;;;18.25;82.92;102106.00;5416218;26;20007;-69
2024/04/12 07:13:53;;;;;;;24.20;8.48;;;;;;;18.10;83.52;102109.13;5407093;26;20079;-70
2024/04/12 07:16:23;;;;;;;25.80;8.90;;;;;;;18.09;84.10;102107.50;5397915;26;20440;-69
2024/04/12 07:18:51;;;;;;;37.50;9.23;;;;;;;18.12;84.69;102107.69;5410926;26;20003;-68
2024/04/12 07:21:22;;;;;;;24.83;8.60;;;;;;;17.99;85.10;102092.88;5415799;26;20000;-69
2024/04/12 07:23:51;;;;;;;21.90;7.85;;;;;;;17.93;84.92;102098.81;5415692;26;20003;-70
2024/04/12 07:26:27;;;;;;;26.08;8.15;;;;;;;17.72;86.26;102098.44;5415142;26;19999;-70
2024/04/12 07:29:02;;;;;;;25.73;8.23;;;;;;;17.78;85.65;102105.50;5418755;26;20053;-70
2024/04/12 07:31:34;;;;;;;20.58;7.93;;;;;;;17.75;87.45;102101.38;5411815;26;20016;-69
2024/04/12 07:34:05;;;;;;;26.67;9.63;;;;;;;17.71;86.74;102102.34;5413964;26;20030;-69
2024/04/12 07:36:35;;;;;;;28.67;9.23;;;;;;;17.90;85.64;102108.50;5418237;26;20080;-69
2024/04/12 07:39:04;;;;;;;21.65;9.07;;;;;;;17.87;85.46;102100.88;5402136;26;20000;-68
2024/04/12 07:41:38;;;;;;;20.77;6.43;;;;;;;17.77;84.22;102101.94;5418720;26;20014;-69
2024/04/12 07:44:06;;;;;;;23.08;8.13;;;;;;;18.03;84.24;102104.06;5389707;26;20012;-69
2024/04/12 07:46:33;;;;;;;22.55;6.70;;;;;;;17.98;84.52;102094.00;5383768;26;20430;-68
2024/04/12 07:49:07;;;;;;;15.52;5.97;;;;;;;18.06;83.62;102108.94;5383995;26;20462;-69
2024/04/12 07:51:45;;;;;;;;;;;;;;;18.07;83.11;102110.59;5354345;26;20008;-69
2024/04/12 07:54:13;;;;;;;17.98;6.90;;;;;;;18.03;85.27;102104.06;5384096;26;19932;-69
2024/04/12 07:56:43;;;;;;;19.77;6.60;;;;;;;18.14;86.89;102113.69;5383628;26;20028;-69
2024/04/12 07:59:25;;;;;;;19.10;6.28;;;;;;;18.20;86.43;102109.69;5383908;26;20328;-70
2024/04/12 08:01:52;;;;;;;23.65;7.05;;;;;;;18.11;87.74;102108.81;5383577;26;20034;-69
2024/04/12 08:04:23;;;;;;;22.00;6.72;;;;;;;18.15;87.70;102109.00;5383781;26;19996;-69
2024/04/12 08:06:55;;;;;;;17.05;5.68;;;;;;;18.22;86.73;102106.63;5383731;26;19996;-69
2024/04/12 08:09:44;;;;;;;23.83;7.13;;;;;;;18.51;83.56;102109.72;5383377;26;20001;-69
2024/04/12 08:12:23;;;;;;;21.83;5.70;;;;;;;18.65;81.21;102108.81;5383661;26;19996;-69
2024/04/12 08:14:52;;;;;;;12.05;4.75;;;;;;;18.63;78.44;102102.81;5383887;26;19996;-69
2024/04/12 08:17:27;;;;;;;18.02;5.95;;;;;;;18.67;79.83;102093.59;5383799;26;20004;-69
2024/04/12 08:19:57;;;;;;;21.10;6.60;;;;;;;18.59;81.04;102113.66;5384296;26;20069;-68
2024/04/12 08:22:25;;;;;;;24.55;7.28;;;;;;;18.51;83.79;102120.72;5403683;26;20004;-69
2024/04/12 08:24:54;;;;;;;21.23;6.53;;;;;;;18.52;83.45;102119.63;5418901;26;19995;-69
2024/04/12 08:27:25;;;;;;;18.65;6.57;;;;;;;18.59;84.65;102121.09;5386843;26;19992;-69
2024/04/12 08:29:58;;;;;;;21.83;5.53;;;;;;;18.45;86.18;102110.97;5383579;26;19999;-69
2024/04/12 08:32:33;;;;;;;14.43;5.00;;;;;;;18.44;86.01;102114.88;5383757;26;20461;-69
2024/04/12 08:35:06;;;;;;;16.45;5.03;;;;;;;18.39;87.57;102114.97;5400911;26;20453;-68
2024/04/12 08:37:38;;;;;;;16.48;4.53;;;;;;;18.28;89.65;102117.19;5419032;26;20020;-69
2024/04/12 08:40:09;;;;;;;17.65;4.97;;;;;;;18.45;90.16;102121.19;5386685;26;19995;-70
2024/04/12 08:42:38;;;;;;;16.63;4.38;;;;;;;18.35;89.26;102115.94;5418465;26;20000;-69
2024/04/12 08:45:14;;;;;;;15.27;3.90;;;;;;;18.45;91.54;102110.97;5418599;26;20080;-70
2024/04/12 08:48:01;;;;;;;14.70;4.07;;;;;;;18.34;92.84;102108.81;5415736;26;20027;-69
2024/04/12 08:50:35;;;;;;;31.00;5.50;;;;;;;18.46;93.23;102106.31;5383735;26;20011;-69
2024/04/12 08:53:11;;;;;;;17.55;4.72;;;;;;;18.41;92.91;102112.75;5383145;26;20351;-69
2024/04/12 08:55:44;;;;;;;20.30;4.80;;;;;;;18.52;93.63;102108.59;5383307;26;19997;-69
2024/04/12 08:58:20;;;;;;;14.68;4.78;;;;;;;18.51;94.89;102115.22;5364739;26;20000;-69
2024/04/12 09:00:52;;;;;;;16.25;5.20;;;;;;;18.66;96.15;102110.47;5383091;26;20031;-69
2024/04/12 09:03:26;;;;;;;20.48;4.68;;;;;;;18.84;92.24;102100.34;5383074;26;20007;-70
2024/04/12 09:05:57;;;;;;;15.57;4.32;;;;;;;19.26;90.19;102093.34;5382863;26;20004;-71
2024/04/12 09:08:28;;;;;;;16.30;4.38;;;;;;;19.84;87.10;102089.38;5383377;26;20537;-71
2024/04/12 09:11:05;;;;;;;17.98;4.03;;;;;;;20.00;84.58;102097.16;5382933;26;20446;-70
2024/04/12 09:13:36;;;;;;;15.60;4.00;;;;;;;20.10;85.00;102092.13;5382763;26;20004;-71
2024/04/12 09:16:07;;;;;;;17.00;4.20;;;;;;;19.79;87.60;102089.53;5382935;26;20438;-69
2024/04/12 09:18:44;;;;;;;19.30;4.15;;;;;;;19.11;94.27;102091.84;5382680;26;20387;-70
2024/04/12 09:21:24;;;;;;;19.65;4.63;;;;;;;19.43;88.68;102090.63;5355062;26;20027;-71
2024/04/12 09:24:09;;;;;;;19.35;4.45;;;;;;;19.83;85.30;102090.50;5382844;26;20082;-71
2024/04/12 09:26:55;;;;;;;16.90;4.32;;;;;;;19.90;86.20;102084.50;5382777;26;19996;-70
2024/04/12 09:29:27;;;;;;;17.42;4.93;;;;;;;20.45;81.97;102078.22;5382799;26;20473;-70
2024/04/12 09:32:50;;;;;;;15.43;4.20;;;;;;;20.62;79.72;102080.16;5382751;26;20007;-70
2024/04/12 09:34:55;;;;;;;22.52;4.45;;;;;;;21.02;77.14;102080.59;5382359;26;20012;-70
2024/04/12 09:37:54;;;;;;;16.40;3.78;;;;;;;21.28;75.61;102083.22;5380460;26;20019;-69
2024/04/12 09:45:45;;;;;;;19.20;3.90;;;;;;;21.33;74.60;102081.41;5382642;26;20004;-69
2024/04/12 10:39:00;;;;;;;13.75;3.75;;;;;;;21.14;67.63;102082.66;5382294;26;19996;-72
2024/04/12 10:41:35;;;;;;;16.80;3.90;;;;;;;21.48;65.56;102089.94;5381340;26;20028;-71
2024/04/12 10:44:05;;;;;;;11.75;3.88;;;;;;;20.81;69.13;102094.38;5353288;26;20012;-71
2024/04/12 10:46:33;;;;;;;13.68;3.88;;;;;;;20.84;68.73;102077.13;5416599;26;20403;-72
2024/04/12 10:49:01;;;;;;;12.95;3.33;;;;;;;20.75;70.22;102090.16;5417271;26;20008;-72
2024/04/12 10:51:28;;;;;;;19.33;4.00;;;;;;;20.38;72.47;102080.69;5417270;26;20453;-72
2024/04/12 10:53:57;;;;;;;17.65;4.03;;;;;;;20.49;71.04;102078.38;5385631;26;19995;-72
2024/04/12 10:56:26;;;;;;;13.75;4.07;;;;;;;20.63;68.97;102081.75;5388772;26;19999;-72
2024/04/12 10:58:56;;;;;;;13.23;3.58;;;;;;;20.38;72.15;102083.44;5422668;26;20049;-71
2024/04/12 11:01:26;;;;;;;14.32;3.80;;;;;;;20.44;70.81;102079.38;5392664;26;19996;-72
2024/04/12 11:03:57;;;;;;;12.80;4.32;;;;;;;20.68;71.91;102089.88;5388315;26;20006;-72
2024/04/12 11:06:32;;;;;;;16.65;3.42;;;;;;;20.66;69.61;102080.28;5386517;26;20006;-72
2024/04/12 11:09:04;;;;;;;17.10;4.07;;;;;;;20.71;69.23;102074.59;5385336;26;20462;-69
2024/04/12 11:11:43;;;;;;;13.43;3.90;;;;;;;20.71;70.40;102075.41;5380770;26;20411;-70
2024/04/12 11:14:27;;;;;;;13.05;3.90;;;;;;;20.57;70.26;102074.81;5380901;26;20066;-69
2024/04/12 11:33:46;;;;;;;11.63;3.17;;;;;;;21.15;66.96;102083.47;5383180;26;20008;-71
2024/04/12 11:36:20;;;;;;;13.73;3.45;;;;;;;21.01;69.07;102081.75;5395724;26;20485;-72
2024/04/12 11:38:53;;;;;;;13.20;3.95;;;;;;;21.05;65.95;102074.41;5391205;26;20004;-71
2024/04/12 11:41:24;;;;;;;14.13;3.38;;;;;;;21.23;64.66;102083.44;5380375;26;20392;-68
2024/04/12 11:43:54;;;;;;;14.18;3.50;;;;;;;21.13;63.56;102081.06;5410877;26;20010;-69
2024/04/12 11:46:23;;;;;;;19.13;3.80;;;;;;;21.10;65.12;102080.91;5384222;26;20008;-69
2024/04/12 11:48:56;;;;;;;13.85;3.30;;;;;;;21.16;65.36;102080.38;5415457;26;20004;-71
2024/04/12 11:51:33;;;;;;;9.43;3.10;;;;;;;21.21;64.19;102077.41;5399087;26;20012;-73
2024/04/12 11:54:01;;;;;;;9.13;3.08;;;;;;;20.90;63.78;102074.19;5380936;26;20000;-71
2024/04/12 11:56:31;;;;;;;16.42;3.65;;;;;;;20.82;70.59;102082.16;5353715;26;20000;-72
2024/04/12 11:59:00;;;;;;;13.75;3.33;;;;;;;20.34;72.15;102079.72;5398117;26;20003;-72
2024/04/12 12:01:28;;;;;;;12.00;3.50;;;;;;;19.76;75.85;102076.41;5415732;26;20011;-72
2024/04/12 12:03:58;;;;;;;14.15;3.47;;;;;;;19.41;80.91;102070.00;5366809;26;20004;-70
2024/04/12 12:06:25;;;;;;;13.57;3.25;;;;;;;19.04;81.90;102074.16;5382393;26;20004;-70
2024/04/12 12:08:57;;;;;;;15.35;3.63;;;;;;;19.10;83.45;102081.16;5362871;26;20021;-70
2024/04/12 12:11:27;;;;;;;20.02;3.95;;;;;;;19.35;84.00;102069.38;5354382;26;20008;-69
2024/04/12 12:13:55;;;;;;;16.83;3.28;;;;;;;19.61;82.91;102068.56;5417193;26;20076;-71
2024/04/12 12:16:25;;;;;;;15.90;3.20;;;;;;;19.54;82.62;102062.72;5386899;26;20031;-71
2024/04/12 12:18:53;;;;;;;14.52;3.30;;;;;;;19.56;81.67;102060.47;5418995;26;20086;-70
2024/04/12 12:21:21;;;;;;;12.95;3.70;;;;;;;19.84;81.61;102056.28;5392620;26;20020;-69
2024/04/12 12:23:48;;;;;;;19.23;3.90;;;;;;;20.29;78.87;102057.81;5383215;26;20085;-70
2024/04/12 12:26:16;;;;;;;15.10;3.92;;;;;;;20.39;75.47;102054.69;5383168;26;20343;-70
2024/04/12 12:28:47;;;;;;;18.50;3.60;;;;;;;20.51;77.29;102056.81;5383334;26;20082;-69
2024/04/12 12:31:18;;;;;;;14.65;3.72;;;;;;;20.47;78.11;102051.09;5383498;26;20450;-69
2024/04/12 12:33:47;;;;;;;16.42;3.58;;;;;;;20.28;79.19;102048.72;5383183;26;20012;-69
2024/04/12 12:36:16;;;;;;;16.13;3.25;;;;;;;20.34;74.81;102041.88;5382896;26;20000;-72
2024/04/12 12:38:44;;;;;;;12.20;2.97;;;;;;;20.67;71.63;102046.84;5388412;26;19999;-69
2024/04/12 12:41:13;;;;;;;14.05;3.53;;;;;;;20.79;72.99;102046.09;5418761;26;20003;-70
2024/04/12 12:43:44;;;;;;;9.73;2.72;;;;;;;20.49;72.68;102053.53;5387110;26;20000;-69
2024/04/12 12:46:13;;;;;;;16.00;4.00;;;;;;;20.49;74.51;102051.56;5418413;26;20048;-70
2024/04/12 12:48:41;;;;;;;14.77;3.47;;;;;;;20.59;77.32;102047.66;5386901;26;20076;-69
2024/04/12 12:51:09;;;;;;;13.23;3.67;;;;;;;20.55;75.04;102042.00;5418666;26;20077;-69
2024/04/12 12:53:37;;;;;;;14.05;3.20;;;;;;;20.50;73.82;102049.59;5418411;26;20015;-70
2024/04/12 12:56:08;;;;;;;15.18;3.97;;;;;;;20.45;73.84;102039.56;5418120;26;19999;-71
2024/04/12 12:58:37;;;;;;;11.15;3.05;;;;;;;20.44;76.20;102045.44;5387268;26;20010;-72